sensor_id;sensor_type;location;lat;lon;timestamp;temperature;humidity
5806;DHT22;2929;50.810;8.342;2022-12-05T00:02:19;1.50;99.90
5806;DHT22;2929;50.810;8.342;2022-12-05T00:04:46;1.50;99.90
5806;DHT22;2929;50.810;8.342;2022-12-05T00:07:13;1.50;99.90
5806;DHT22;2929;50.810;8.342;2022-12-05T00:09:41;1.50;99.90
5806;DHT22;2929;50.810;8.342;2022-12-05T00:12:08;1.50;99.90
5806;DHT22;2929;50.810;8.342;2022-12-05T00:14:35;1.50;99.90
5806;DHT22;2929;50.810;8.342;2022-12-05T00:17:02;1.50;99.90
5806;DHT22;2929;50.810;8.342;2022-12-05T00:19:30;1.50;99.90
5806;DHT22;2929;50.810;8.342;2022-12-05T00:21:57;1.50;99.90
5806;DHT22;2929;50.810;8.342;2022-12-05T00:24:24;1.50;99.90
5806;DHT22;2929;50.810;8.342;2022-12-05T00:26:52;1.40;99.90
5806;DHT22;2929;50.810;8.342;2022-12-05T00:29:19;1.50;99.90
5806;DHT22;2929;50.810;8.342;2022-12-05T00:31:46;1.50;99.90
5806;DHT22;2929;50.810;8.342;2022-12-05T00:34:13;1.50;99.90
5806;DHT22;2929;50.810;8.342;2022-12-05T00:36:41;1.50;99.90
5806;DHT22;2929;50.810;8.342;2022-12-05T00:39:10;1.50;99.90
5806;DHT22;2929;50.810;8.342;2022-12-05T00:41:39;1.50;99.90
5806;DHT22;2929;50.810;8.342;2022-12-05T00:44:06;1.40;99.90
5806;DHT22;2929;50.810;8.342;2022-12-05T00:46:34;1.50;99.90
5806;DHT22;2929;50.810;8.342;2022-12-05T00:49:03;1.40;99.90
5806;DHT22;2929;50.810;8.342;2022-12-05T00:51:33;1.40;99.90
5806;DHT22;2929;50.810;8.342;2022-12-05T00:54:04;1.40;99.90
5806;DHT22;2929;50.810;8.342;2022-12-05T00:56:32;1.40;99.90
5806;DHT22;2929;50.810;8.342;2022-12-05T00:59:00;1.40;99.90
5806;DHT22;2929;50.810;8.342;2022-12-05T01:01:29;1.40;99.90
5806;DHT22;2929;50.810;8.342;2022-12-05T01:03:58;1.40;99.90
5806;DHT22;2929;50.810;8.342;2022-12-05T01:06:26;1.40;99.90
5806;DHT22;2929;50.810;8.342;2022-12-05T01:08:54;1.30;99.90
5806;DHT22;2929;50.810;8.342;2022-12-05T01:11:23;1.30;99.90
5806;DHT22;2929;50.810;8.342;2022-12-05T01:13:51;1.30;99.90
5806;DHT22;2929;50.810;8.342;2022-12-05T01:16:20;1.30;99.90
5806;DHT22;2929;50.810;8.342;2022-12-05T01:18:48;1.30;99.90
5806;DHT22;2929;50.810;8.342;2022-12-05T01:21:15;1.30;99.90
5806;DHT22;2929;50.810;8.342;2022-12-05T01:23:42;1.20;99.90
5806;DHT22;2929;50.810;8.342;2022-12-05T01:26:11;1.30;99.90
5806;DHT22;2929;50.810;8.342;2022-12-05T01:28:40;1.20;99.90
5806;DHT22;2929;50.810;8.342;2022-12-05T01:31:09;1.20;99.90
5806;DHT22;2929;50.810;8.342;2022-12-05T01:33:38;1.20;99.90
5806;DHT22;2929;50.810;8.342;2022-12-05T01:36:10;1.20;99.90
5806;DHT22;2929;50.810;8.342;2022-12-05T01:38:38;1.20;99.90
5806;DHT22;2929;50.810;8.342;2022-12-05T01:41:07;1.10;99.90
5806;DHT22;2929;50.810;8.342;2022-12-05T01:43:56;1.20;99.90
5806;DHT22;2929;50.810;8.342;2022-12-05T01:46:24;1.10;99.90
5806;DHT22;2929;50.810;8.342;2022-12-05T01:48:56;1.20;99.90
5806;DHT22;2929;50.810;8.342;2022-12-05T01:51:24;1.10;99.90
5806;DHT22;2929;50.810;8.342;2022-12-05T01:53:51;1.10;99.90
5806;DHT22;2929;50.810;8.342;2022-12-05T01:56:19;1.10;99.90
5806;DHT22;2929;50.810;8.342;2022-12-05T01:58:47;1.10;99.90
5806;DHT22;2929;50.810;8.342;2022-12-05T02:01:16;1.10;99.90
5806;DHT22;2929;50.810;8.342;2022-12-05T02:03:47;1.10;99.90
5806;DHT22;2929;50.810;8.342;2022-12-05T02:06:17;1.00;99.90
5806;DHT22;2929;50.810;8.342;2022-12-05T02:08:44;1.00;99.90
5806;DHT22;2929;50.810;8.342;2022-12-05T02:11:12;1.00;99.90
5806;DHT22;2929;50.810;8.342;2022-12-05T02:14:05;1.00;99.90
5806;DHT22;2929;50.810;8.342;2022-12-05T02:16:46;1.00;99.90
5806;DHT22;2929;50.810;8.342;2022-12-05T02:23:16;1.00;99.90
5806;DHT22;2929;50.810;8.342;2022-12-05T02:32:21;0.90;99.90
5806;DHT22;2929;50.810;8.342;2022-12-05T02:34:57;0.80;99.90
5806;DHT22;2929;50.810;8.342;2022-12-05T02:37:28;0.80;99.90
5806;DHT22;2929;50.810;8.342;2022-12-05T02:40:02;0.80;99.90
5806;DHT22;2929;50.810;8.342;2022-12-05T02:42:35;0.70;99.90
5806;DHT22;2929;50.810;8.342;2022-12-05T02:45:08;0.70;99.90
5806;DHT22;2929;50.810;8.342;2022-12-05T02:47:41;0.70;99.90
5806;DHT22;2929;50.810;8.342;2022-12-05T02:50:12;0.70;99.90
5806;DHT22;2929;50.810;8.342;2022-12-05T02:52:41;0.70;99.90
5806;DHT22;2929;50.810;8.342;2022-12-05T02:55:09;0.70;99.90
5806;DHT22;2929;50.810;8.342;2022-12-05T02:57:36;0.70;99.90
5806;DHT22;2929;50.810;8.342;2022-12-05T03:00:05;0.70;99.90
5806;DHT22;2929;50.810;8.342;2022-12-05T03:02:33;0.70;99.90
5806;DHT22;2929;50.810;8.342;2022-12-05T03:05:14;0.70;99.90
5806;DHT22;2929;50.810;8.342;2022-12-05T03:07:45;0.70;99.90
5806;DHT22;2929;50.810;8.342;2022-12-05T03:10:17;0.70;99.90
5806;DHT22;2929;50.810;8.342;2022-12-05T03:12:49;0.70;99.90
5806;DHT22;2929;50.810;8.342;2022-12-05T03:15:18;0.70;99.90
5806;DHT22;2929;50.810;8.342;2022-12-05T03:17:50;0.60;99.90
5806;DHT22;2929;50.810;8.342;2022-12-05T03:20:24;0.60;99.90
5806;DHT22;2929;50.810;8.342;2022-12-05T03:22:56;0.60;99.90
5806;DHT22;2929;50.810;8.342;2022-12-05T03:25:29;0.60;99.90
5806;DHT22;2929;50.810;8.342;2022-12-05T03:28:05;0.60;99.90
5806;DHT22;2929;50.810;8.342;2022-12-05T03:30:36;0.60;99.90
5806;DHT22;2929;50.810;8.342;2022-12-05T03:33:08;0.60;99.90
5806;DHT22;2929;50.810;8.342;2022-12-05T03:35:41;0.60;99.90
5806;DHT22;2929;50.810;8.342;2022-12-05T03:38:12;0.60;99.90
5806;DHT22;2929;50.810;8.342;2022-12-05T03:40:43;0.60;99.90
5806;DHT22;2929;50.810;8.342;2022-12-05T03:43:14;0.60;99.90
5806;DHT22;2929;50.810;8.342;2022-12-05T03:45:46;0.60;99.90
5806;DHT22;2929;50.810;8.342;2022-12-05T03:48:20;0.60;99.90
5806;DHT22;2929;50.810;8.342;2022-12-05T03:50:51;0.60;99.90
5806;DHT22;2929;50.810;8.342;2022-12-05T03:53:25;0.60;99.90
5806;DHT22;2929;50.810;8.342;2022-12-05T03:55:56;0.50;99.90
5806;DHT22;2929;50.810;8.342;2022-12-05T03:58:29;0.50;99.90
5806;DHT22;2929;50.810;8.342;2022-12-05T04:00:58;0.50;99.90
5806;DHT22;2929;50.810;8.342;2022-12-05T04:03:31;0.50;99.90
5806;DHT22;2929;50.810;8.342;2022-12-05T04:06:09;0.50;99.90
5806;DHT22;2929;50.810;8.342;2022-12-05T04:08:40;0.50;99.90
5806;DHT22;2929;50.810;8.342;2022-12-05T04:11:13;0.50;99.90
5806;DHT22;2929;50.810;8.342;2022-12-05T04:13:45;0.50;99.90
5806;DHT22;2929;50.810;8.342;2022-12-05T04:16:16;0.50;99.90
5806;DHT22;2929;50.810;8.342;2022-12-05T04:19:04;0.40;99.90
5806;DHT22;2929;50.810;8.342;2022-12-05T04:21:40;0.50;99.90
5806;DHT22;2929;50.810;8.342;2022-12-05T04:24:09;0.50;99.90
5806;DHT22;2929;50.810;8.342;2022-12-05T04:27:09;0.50;99.90
5806;DHT22;2929;50.810;8.342;2022-12-05T04:29:42;0.50;99.90
5806;DHT22;2929;50.810;8.342;2022-12-05T04:32:12;0.50;99.90
5806;DHT22;2929;50.810;8.342;2022-12-05T04:34:41;0.50;99.90
5806;DHT22;2929;50.810;8.342;2022-12-05T04:37:15;0.50;99.90
5806;DHT22;2929;50.810;8.342;2022-12-05T04:39:49;0.50;99.90
5806;DHT22;2929;50.810;8.342;2022-12-05T04:42:20;0.50;99.90
5806;DHT22;2929;50.810;8.342;2022-12-05T04:44:52;0.50;99.90
5806;DHT22;2929;50.810;8.342;2022-12-05T04:47:22;0.60;99.90
5806;DHT22;2929;50.810;8.342;2022-12-05T04:49:52;0.50;99.90
5806;DHT22;2929;50.810;8.342;2022-12-05T04:52:21;0.50;99.90
5806;DHT22;2929;50.810;8.342;2022-12-05T04:54:51;0.50;99.90
5806;DHT22;2929;50.810;8.342;2022-12-05T04:57:25;0.50;99.90
5806;DHT22;2929;50.810;8.342;2022-12-05T04:59:54;0.50;99.90
5806;DHT22;2929;50.810;8.342;2022-12-05T05:02:26;0.50;99.90
5806;DHT22;2929;50.810;8.342;2022-12-05T05:04:57;0.50;99.90
5806;DHT22;2929;50.810;8.342;2022-12-05T05:07:27;0.50;99.90
5806;DHT22;2929;50.810;8.342;2022-12-05T05:09:54;0.50;99.90
5806;DHT22;2929;50.810;8.342;2022-12-05T05:12:21;0.50;99.90
5806;DHT22;2929;50.810;8.342;2022-12-05T05:14:48;0.50;99.90
5806;DHT22;2929;50.810;8.342;2022-12-05T05:17:16;0.50;99.90
5806;DHT22;2929;50.810;8.342;2022-12-05T05:19:43;0.50;99.90
5806;DHT22;2929;50.810;8.342;2022-12-05T05:22:10;0.50;99.90
5806;DHT22;2929;50.810;8.342;2022-12-05T05:24:38;0.50;99.90
5806;DHT22;2929;50.810;8.342;2022-12-05T05:27:05;0.50;99.90
5806;DHT22;2929;50.810;8.342;2022-12-05T05:29:32;0.50;99.90
5806;DHT22;2929;50.810;8.342;2022-12-05T05:31:59;0.50;99.90
5806;DHT22;2929;50.810;8.342;2022-12-05T05:34:27;0.50;99.90
5806;DHT22;2929;50.810;8.342;2022-12-05T05:36:54;0.50;99.90
5806;DHT22;2929;50.810;8.342;2022-12-05T05:39:21;0.50;99.90
5806;DHT22;2929;50.810;8.342;2022-12-05T05:41:49;0.50;99.90
5806;DHT22;2929;50.810;8.342;2022-12-05T05:44:17;0.50;99.90
5806;DHT22;2929;50.810;8.342;2022-12-05T05:46:45;0.50;99.90
5806;DHT22;2929;50.810;8.342;2022-12-05T05:49:12;0.50;99.90
5806;DHT22;2929;50.810;8.342;2022-12-05T05:51:39;0.60;99.90
5806;DHT22;2929;50.810;8.342;2022-12-05T05:54:06;0.60;99.90
5806;DHT22;2929;50.810;8.342;2022-12-05T05:56:33;0.50;99.90
5806;DHT22;2929;50.810;8.342;2022-12-05T05:59:02;0.50;99.90
5806;DHT22;2929;50.810;8.342;2022-12-05T06:01:30;0.60;99.90
5806;DHT22;2929;50.810;8.342;2022-12-05T06:03:58;0.50;99.90
5806;DHT22;2929;50.810;8.342;2022-12-05T06:06:25;0.60;99.90
5806;DHT22;2929;50.810;8.342;2022-12-05T06:08:52;0.50;99.90
5806;DHT22;2929;50.810;8.342;2022-12-05T06:11:22;0.50;99.90
5806;DHT22;2929;50.810;8.342;2022-12-05T06:13:49;0.50;99.90
5806;DHT22;2929;50.810;8.342;2022-12-05T06:16:18;0.50;99.90
5806;DHT22;2929;50.810;8.342;2022-12-05T06:18:45;0.50;99.90
5806;DHT22;2929;50.810;8.342;2022-12-05T06:21:13;0.50;99.90
5806;DHT22;2929;50.810;8.342;2022-12-05T06:23:40;0.60;99.90
5806;DHT22;2929;50.810;8.342;2022-12-05T06:26:10;0.50;99.90
5806;DHT22;2929;50.810;8.342;2022-12-05T06:28:38;0.60;99.90
5806;DHT22;2929;50.810;8.342;2022-12-05T06:31:10;0.60;99.90
5806;DHT22;2929;50.810;8.342;2022-12-05T06:33:39;0.60;99.90
5806;DHT22;2929;50.810;8.342;2022-12-05T06:36:09;0.60;99.90
5806;DHT22;2929;50.810;8.342;2022-12-05T06:38:38;0.60;99.90
5806;DHT22;2929;50.810;8.342;2022-12-05T06:41:07;0.60;99.90
5806;DHT22;2929;50.810;8.342;2022-12-05T06:43:35;0.60;99.90
5806;DHT22;2929;50.810;8.342;2022-12-05T06:46:04;0.60;99.90
5806;DHT22;2929;50.810;8.342;2022-12-05T06:48:32;0.50;99.90
5806;DHT22;2929;50.810;8.342;2022-12-05T06:51:01;0.50;99.90
5806;DHT22;2929;50.810;8.342;2022-12-05T06:53:29;0.50;99.90
5806;DHT22;2929;50.810;8.342;2022-12-05T06:55:59;0.50;99.90
5806;DHT22;2929;50.810;8.342;2022-12-05T06:58:27;0.50;99.90
5806;DHT22;2929;50.810;8.342;2022-12-05T07:00:55;0.50;99.90
5806;DHT22;2929;50.810;8.342;2022-12-05T07:03:41;0.50;99.90
5806;DHT22;2929;50.810;8.342;2022-12-05T07:06:10;0.50;99.90
5806;DHT22;2929;50.810;8.342;2022-12-05T07:08:37;0.50;99.90
5806;DHT22;2929;50.810;8.342;2022-12-05T07:11:06;0.50;99.90
5806;DHT22;2929;50.810;8.342;2022-12-05T07:13:33;0.50;99.90
5806;DHT22;2929;50.810;8.342;2022-12-05T07:16:01;0.60;99.90
5806;DHT22;2929;50.810;8.342;2022-12-05T07:18:29;0.60;99.90
5806;DHT22;2929;50.810;8.342;2022-12-05T07:20:56;0.60;99.90
5806;DHT22;2929;50.810;8.342;2022-12-05T07:23:25;0.60;99.90
5806;DHT22;2929;50.810;8.342;2022-12-05T07:25:52;0.60;99.90
5806;DHT22;2929;50.810;8.342;2022-12-05T07:28:19;0.60;99.90
5806;DHT22;2929;50.810;8.342;2022-12-05T07:30:46;0.60;99.90
5806;DHT22;2929;50.810;8.342;2022-12-05T07:33:13;0.70;99.90
5806;DHT22;2929;50.810;8.342;2022-12-05T07:35:40;0.70;99.90
5806;DHT22;2929;50.810;8.342;2022-12-05T07:38:08;0.70;99.90
5806;DHT22;2929;50.810;8.342;2022-12-05T07:40:37;0.60;99.90
5806;DHT22;2929;50.810;8.342;2022-12-05T07:43:04;0.60;99.90
5806;DHT22;2929;50.810;8.342;2022-12-05T07:45:33;0.70;99.90
5806;DHT22;2929;50.810;8.342;2022-12-05T07:48:00;0.70;99.90
5806;DHT22;2929;50.810;8.342;2022-12-05T07:50:27;0.70;99.90
5806;DHT22;2929;50.810;8.342;2022-12-05T07:52:54;0.70;99.90
5806;DHT22;2929;50.810;8.342;2022-12-05T07:55:21;0.70;99.90
5806;DHT22;2929;50.810;8.342;2022-12-05T07:57:50;0.80;99.90
5806;DHT22;2929;50.810;8.342;2022-12-05T08:00:18;0.70;99.90
5806;DHT22;2929;50.810;8.342;2022-12-05T08:02:45;0.70;99.90
5806;DHT22;2929;50.810;8.342;2022-12-05T08:05:12;0.70;99.90
5806;DHT22;2929;50.810;8.342;2022-12-05T08:07:40;0.80;99.90
5806;DHT22;2929;50.810;8.342;2022-12-05T08:10:07;0.80;99.90
5806;DHT22;2929;50.810;8.342;2022-12-05T08:12:35;0.80;99.90
5806;DHT22;2929;50.810;8.342;2022-12-05T08:15:05;0.80;99.90
5806;DHT22;2929;50.810;8.342;2022-12-05T08:17:32;0.80;99.90
5806;DHT22;2929;50.810;8.342;2022-12-05T08:19:59;0.80;99.90
5806;DHT22;2929;50.810;8.342;2022-12-05T08:22:27;0.80;99.90
5806;DHT22;2929;50.810;8.342;2022-12-05T08:24:54;0.80;99.90
5806;DHT22;2929;50.810;8.342;2022-12-05T08:27:21;0.90;99.90
5806;DHT22;2929;50.810;8.342;2022-12-05T08:29:48;0.90;99.90
5806;DHT22;2929;50.810;8.342;2022-12-05T08:32:16;0.90;99.90
5806;DHT22;2929;50.810;8.342;2022-12-05T08:34:43;0.90;99.90
5806;DHT22;2929;50.810;8.342;2022-12-05T08:37:10;0.90;99.90
5806;DHT22;2929;50.810;8.342;2022-12-05T08:39:37;0.90;99.90
5806;DHT22;2929;50.810;8.342;2022-12-05T08:42:04;0.90;99.90
5806;DHT22;2929;50.810;8.342;2022-12-05T08:44:32;0.90;99.90
5806;DHT22;2929;50.810;8.342;2022-12-05T08:46:59;1.00;99.90
5806;DHT22;2929;50.810;8.342;2022-12-05T08:49:27;1.00;99.90
5806;DHT22;2929;50.810;8.342;2022-12-05T08:51:54;1.10;99.90
5806;DHT22;2929;50.810;8.342;2022-12-05T08:54:21;1.20;99.90
5806;DHT22;2929;50.810;8.342;2022-12-05T08:56:49;1.20;99.90
5806;DHT22;2929;50.810;8.342;2022-12-05T08:59:17;1.20;99.90
5806;DHT22;2929;50.810;8.342;2022-12-05T09:01:44;1.30;99.90
5806;DHT22;2929;50.810;8.342;2022-12-05T09:04:11;1.30;99.90
5806;DHT22;2929;50.810;8.342;2022-12-05T09:06:40;1.40;99.90
5806;DHT22;2929;50.810;8.342;2022-12-05T09:09:09;1.40;99.90
5806;DHT22;2929;50.810;8.342;2022-12-05T09:11:39;1.50;99.90
5806;DHT22;2929;50.810;8.342;2022-12-05T09:14:11;1.40;99.90
5806;DHT22;2929;50.810;8.342;2022-12-05T09:16:39;1.40;99.90
5806;DHT22;2929;50.810;8.342;2022-12-05T09:19:11;1.50;99.90
5806;DHT22;2929;50.810;8.342;2022-12-05T09:21:40;1.50;99.90
5806;DHT22;2929;50.810;8.342;2022-12-05T09:24:09;1.50;99.90
5806;DHT22;2929;50.810;8.342;2022-12-05T09:26:38;1.50;99.90
5806;DHT22;2929;50.810;8.342;2022-12-05T09:29:05;1.50;99.90
5806;DHT22;2929;50.810;8.342;2022-12-05T09:31:32;1.60;99.90
5806;DHT22;2929;50.810;8.342;2022-12-05T09:33:59;1.60;99.90
5806;DHT22;2929;50.810;8.342;2022-12-05T09:36:28;1.50;99.90
5806;DHT22;2929;50.810;8.342;2022-12-05T09:38:59;1.50;99.90
5806;DHT22;2929;50.810;8.342;2022-12-05T09:45:00;1.80;99.90
5806;DHT22;2929;50.810;8.342;2022-12-05T09:47:33;1.90;99.90
5806;DHT22;2929;50.810;8.342;2022-12-05T09:50:12;1.90;99.90
5806;DHT22;2929;50.810;8.342;2022-12-05T09:52:43;1.90;99.90
5806;DHT22;2929;50.810;8.342;2022-12-05T09:55:16;1.90;99.90
5806;DHT22;2929;50.810;8.342;2022-12-05T09:57:47;1.90;99.90
5806;DHT22;2929;50.810;8.342;2022-12-05T10:00:16;1.90;99.90
5806;DHT22;2929;50.810;8.342;2022-12-05T10:02:50;1.90;99.90
5806;DHT22;2929;50.810;8.342;2022-12-05T10:05:23;1.90;99.90
5806;DHT22;2929;50.810;8.342;2022-12-05T10:07:58;1.90;99.90
5806;DHT22;2929;50.810;8.342;2022-12-05T10:10:37;1.90;99.90
5806;DHT22;2929;50.810;8.342;2022-12-05T10:13:16;1.90;99.90
5806;DHT22;2929;50.810;8.342;2022-12-05T10:15:47;1.90;99.90
5806;DHT22;2929;50.810;8.342;2022-12-05T10:18:25;1.90;99.90
5806;DHT22;2929;50.810;8.342;2022-12-05T10:20:56;1.90;99.90
5806;DHT22;2929;50.810;8.342;2022-12-05T10:23:28;1.90;99.90
5806;DHT22;2929;50.810;8.342;2022-12-05T10:25:58;1.80;99.90
5806;DHT22;2929;50.810;8.342;2022-12-05T10:28:32;1.80;99.90
5806;DHT22;2929;50.810;8.342;2022-12-05T10:31:03;1.80;99.90
5806;DHT22;2929;50.810;8.342;2022-12-05T10:33:37;1.70;99.90
5806;DHT22;2929;50.810;8.342;2022-12-05T10:36:12;1.70;99.90
5806;DHT22;2929;50.810;8.342;2022-12-05T10:38:40;1.70;99.90
5806;DHT22;2929;50.810;8.342;2022-12-05T10:41:12;1.70;99.90
5806;DHT22;2929;50.810;8.342;2022-12-05T10:43:42;1.70;99.90
5806;DHT22;2929;50.810;8.342;2022-12-05T10:46:10;1.70;99.90
5806;DHT22;2929;50.810;8.342;2022-12-05T10:48:39;1.70;99.90
5806;DHT22;2929;50.810;8.342;2022-12-05T10:51:12;1.70;99.90
5806;DHT22;2929;50.810;8.342;2022-12-05T10:53:42;1.70;99.90
5806;DHT22;2929;50.810;8.342;2022-12-05T10:56:37;1.70;99.90
5806;DHT22;2929;50.810;8.342;2022-12-05T10:59:05;1.80;99.90
5806;DHT22;2929;50.810;8.342;2022-12-05T11:01:33;1.80;99.90
5806;DHT22;2929;50.810;8.342;2022-12-05T11:04:07;1.90;99.90
5806;DHT22;2929;50.810;8.342;2022-12-05T11:06:35;1.90;99.90
5806;DHT22;2929;50.810;8.342;2022-12-05T11:09:04;1.90;99.90
5806;DHT22;2929;50.810;8.342;2022-12-05T11:11:40;1.90;99.90
5806;DHT22;2929;50.810;8.342;2022-12-05T11:14:20;1.90;99.90
5806;DHT22;2929;50.810;8.342;2022-12-05T11:16:52;1.90;99.90
5806;DHT22;2929;50.810;8.342;2022-12-05T11:19:26;1.90;99.90
5806;DHT22;2929;50.810;8.342;2022-12-05T11:21:54;2.00;99.90
5806;DHT22;2929;50.810;8.342;2022-12-05T11:24:24;1.90;99.90
5806;DHT22;2929;50.810;8.342;2022-12-05T11:26:54;1.90;99.90
5806;DHT22;2929;50.810;8.342;2022-12-05T11:29:29;1.90;99.90
5806;DHT22;2929;50.810;8.342;2022-12-05T11:31:56;2.00;99.90
5806;DHT22;2929;50.810;8.342;2022-12-05T11:34:28;2.00;99.90
5806;DHT22;2929;50.810;8.342;2022-12-05T11:37:00;2.10;99.90
5806;DHT22;2929;50.810;8.342;2022-12-05T11:39:28;2.10;99.90
5806;DHT22;2929;50.810;8.342;2022-12-05T11:42:21;2.20;99.90
5806;DHT22;2929;50.810;8.342;2022-12-05T11:45:05;2.20;99.90
5806;DHT22;2929;50.810;8.342;2022-12-05T11:47:51;2.10;99.90
5806;DHT22;2929;50.810;8.342;2022-12-05T11:50:31;2.10;99.90
5806;DHT22;2929;50.810;8.342;2022-12-05T11:53:10;2.10;99.90
5806;DHT22;2929;50.810;8.342;2022-12-05T11:55:42;2.10;99.90
5806;DHT22;2929;50.810;8.342;2022-12-05T11:58:24;2.00;99.90
5806;DHT22;2929;50.810;8.342;2022-12-05T12:01:02;2.00;99.90
5806;DHT22;2929;50.810;8.342;2022-12-05T12:06:29;1.90;99.90
5806;DHT22;2929;50.810;8.342;2022-12-05T12:09:09;1.90;99.90
5806;DHT22;2929;50.810;8.342;2022-12-05T12:11:44;2.00;99.90
5806;DHT22;2929;50.810;8.342;2022-12-05T12:14:23;1.90;99.90
5806;DHT22;2929;50.810;8.342;2022-12-05T12:17:00;1.90;99.90
5806;DHT22;2929;50.810;8.342;2022-12-05T12:19:52;1.90;99.90
5806;DHT22;2929;50.810;8.342;2022-12-05T12:22:31;1.90;99.90
5806;DHT22;2929;50.810;8.342;2022-12-05T12:25:14;1.90;99.90
5806;DHT22;2929;50.810;8.342;2022-12-05T12:27:54;1.90;99.90
5806;DHT22;2929;50.810;8.342;2022-12-05T12:30:34;1.90;99.90
5806;DHT22;2929;50.810;8.342;2022-12-05T12:33:11;1.90;99.90
5806;DHT22;2929;50.810;8.342;2022-12-05T12:35:45;1.90;99.90
5806;DHT22;2929;50.810;8.342;2022-12-05T12:38:39;2.00;99.90
5806;DHT22;2929;50.810;8.342;2022-12-05T12:41:17;1.90;99.90
5806;DHT22;2929;50.810;8.342;2022-12-05T12:43:56;2.00;99.90
5806;DHT22;2929;50.810;8.342;2022-12-05T12:46:40;2.00;99.90
5806;DHT22;2929;50.810;8.342;2022-12-05T12:49:31;2.00;99.90
5806;DHT22;2929;50.810;8.342;2022-12-05T12:52:03;2.00;99.90
5806;DHT22;2929;50.810;8.342;2022-12-05T12:54:54;2.00;99.90
5806;DHT22;2929;50.810;8.342;2022-12-05T12:57:31;2.00;99.90
5806;DHT22;2929;50.810;8.342;2022-12-05T13:00:05;2.10;99.90
5806;DHT22;2929;50.810;8.342;2022-12-05T13:02:42;2.10;99.90
5806;DHT22;2929;50.810;8.342;2022-12-05T13:05:20;2.10;99.90
5806;DHT22;2929;50.810;8.342;2022-12-05T13:07:52;2.10;99.90
5806;DHT22;2929;50.810;8.342;2022-12-05T13:10:24;2.10;99.90
5806;DHT22;2929;50.810;8.342;2022-12-05T13:12:53;2.10;99.90
5806;DHT22;2929;50.810;8.342;2022-12-05T13:15:27;2.00;99.90
5806;DHT22;2929;50.810;8.342;2022-12-05T13:17:58;2.10;99.90
5806;DHT22;2929;50.810;8.342;2022-12-05T13:20:30;2.10;99.90
5806;DHT22;2929;50.810;8.342;2022-12-05T13:22:58;2.10;99.90
5806;DHT22;2929;50.810;8.342;2022-12-05T13:25:30;2.00;99.90
5806;DHT22;2929;50.810;8.342;2022-12-05T13:28:01;2.00;99.90
5806;DHT22;2929;50.810;8.342;2022-12-05T13:30:29;2.10;99.90
5806;DHT22;2929;50.810;8.342;2022-12-05T13:33:00;2.10;99.90
5806;DHT22;2929;50.810;8.342;2022-12-05T13:35:31;2.10;99.90
5806;DHT22;2929;50.810;8.342;2022-12-05T13:38:20;2.20;99.90
5806;DHT22;2929;50.810;8.342;2022-12-05T13:41:04;2.20;99.90
5806;DHT22;2929;50.810;8.342;2022-12-05T13:43:52;2.10;99.90
5806;DHT22;2929;50.810;8.342;2022-12-05T13:46:25;2.10;99.90
5806;DHT22;2929;50.810;8.342;2022-12-05T13:48:58;2.10;99.90
5806;DHT22;2929;50.810;8.342;2022-12-05T13:51:31;2.10;99.90
5806;DHT22;2929;50.810;8.342;2022-12-05T13:54:04;2.10;99.90
5806;DHT22;2929;50.810;8.342;2022-12-05T13:56:48;2.10;99.90
5806;DHT22;2929;50.810;8.342;2022-12-05T14:02:53;2.10;99.90
5806;DHT22;2929;50.810;8.342;2022-12-05T14:05:48;2.10;99.90
5806;DHT22;2929;50.810;8.342;2022-12-05T14:08:50;2.10;99.90
5806;DHT22;2929;50.810;8.342;2022-12-05T14:11:17;2.10;99.90
5806;DHT22;2929;50.810;8.342;2022-12-05T14:13:45;2.10;99.90
5806;DHT22;2929;50.810;8.342;2022-12-05T14:19:46;2.20;99.90
5806;DHT22;2929;50.810;8.342;2022-12-05T14:25:19;2.10;99.90
5806;DHT22;2929;50.810;8.342;2022-12-05T14:27:52;2.10;99.90
5806;DHT22;2929;50.810;8.342;2022-12-05T14:30:24;2.10;99.90
5806;DHT22;2929;50.810;8.342;2022-12-05T14:32:54;2.10;99.90
5806;DHT22;2929;50.810;8.342;2022-12-05T14:35:28;2.10;99.90
5806;DHT22;2929;50.810;8.342;2022-12-05T14:38:01;2.10;99.90
5806;DHT22;2929;50.810;8.342;2022-12-05T14:40:31;2.10;99.90
5806;DHT22;2929;50.810;8.342;2022-12-05T14:43:01;2.00;99.90
5806;DHT22;2929;50.810;8.342;2022-12-05T14:45:31;2.00;99.90
5806;DHT22;2929;50.810;8.342;2022-12-05T14:48:01;2.00;99.90
5806;DHT22;2929;50.810;8.342;2022-12-05T14:50:41;2.00;99.90
5806;DHT22;2929;50.810;8.342;2022-12-05T14:53:29;2.00;99.90
5806;DHT22;2929;50.810;8.342;2022-12-05T14:56:02;2.00;99.90
5806;DHT22;2929;50.810;8.342;2022-12-05T14:58:34;2.00;99.90
5806;DHT22;2929;50.810;8.342;2022-12-05T15:01:06;2.00;99.90
5806;DHT22;2929;50.810;8.342;2022-12-05T15:03:38;2.00;99.90
5806;DHT22;2929;50.810;8.342;2022-12-05T15:06:12;2.00;99.90
5806;DHT22;2929;50.810;8.342;2022-12-05T15:08:44;2.00;99.90
5806;DHT22;2929;50.810;8.342;2022-12-05T15:11:15;2.00;99.90
5806;DHT22;2929;50.810;8.342;2022-12-05T15:13:55;2.00;99.90
5806;DHT22;2929;50.810;8.342;2022-12-05T15:16:24;2.00;99.90
5806;DHT22;2929;50.810;8.342;2022-12-05T15:18:57;2.00;99.90
5806;DHT22;2929;50.810;8.342;2022-12-05T15:21:30;2.00;99.90
5806;DHT22;2929;50.810;8.342;2022-12-05T15:24:01;2.00;99.90
5806;DHT22;2929;50.810;8.342;2022-12-05T15:26:34;2.00;99.90
5806;DHT22;2929;50.810;8.342;2022-12-05T15:29:06;2.00;99.90
5806;DHT22;2929;50.810;8.342;2022-12-05T15:31:38;2.00;99.90
5806;DHT22;2929;50.810;8.342;2022-12-05T15:34:11;1.90;99.90
5806;DHT22;2929;50.810;8.342;2022-12-05T15:36:43;1.90;99.90
5806;DHT22;2929;50.810;8.342;2022-12-05T15:39:19;1.90;99.90
5806;DHT22;2929;50.810;8.342;2022-12-05T15:41:52;1.90;99.90
5806;DHT22;2929;50.810;8.342;2022-12-05T15:44:20;1.90;99.90
5806;DHT22;2929;50.810;8.342;2022-12-05T15:46:51;1.90;99.90
5806;DHT22;2929;50.810;8.342;2022-12-05T15:49:23;1.90;99.90
5806;DHT22;2929;50.810;8.342;2022-12-05T15:51:53;1.90;99.90
5806;DHT22;2929;50.810;8.342;2022-12-05T15:54:26;1.90;99.90
5806;DHT22;2929;50.810;8.342;2022-12-05T15:56:58;1.90;99.90
5806;DHT22;2929;50.810;8.342;2022-12-05T15:59:32;1.90;99.90
5806;DHT22;2929;50.810;8.342;2022-12-05T16:02:09;1.90;99.90
5806;DHT22;2929;50.810;8.342;2022-12-05T16:04:42;1.90;99.90
5806;DHT22;2929;50.810;8.342;2022-12-05T16:07:12;1.90;99.90
5806;DHT22;2929;50.810;8.342;2022-12-05T16:09:43;1.90;99.90
5806;DHT22;2929;50.810;8.342;2022-12-05T16:12:25;1.80;99.90
5806;DHT22;2929;50.810;8.342;2022-12-05T16:14:54;1.80;99.90
5806;DHT22;2929;50.810;8.342;2022-12-05T16:17:22;1.80;99.90
5806;DHT22;2929;50.810;8.342;2022-12-05T16:19:50;1.80;99.90
5806;DHT22;2929;50.810;8.342;2022-12-05T16:22:21;1.90;99.90
5806;DHT22;2929;50.810;8.342;2022-12-05T16:25:01;1.90;99.90
5806;DHT22;2929;50.810;8.342;2022-12-05T16:27:32;1.90;99.90
5806;DHT22;2929;50.810;8.342;2022-12-05T16:30:16;1.90;99.90
5806;DHT22;2929;50.810;8.342;2022-12-05T16:32:45;1.80;99.90
5806;DHT22;2929;50.810;8.342;2022-12-05T16:35:29;1.80;99.90
5806;DHT22;2929;50.810;8.342;2022-12-05T16:38:05;1.80;99.90
5806;DHT22;2929;50.810;8.342;2022-12-05T16:40:34;1.80;99.90
5806;DHT22;2929;50.810;8.342;2022-12-05T16:43:03;1.90;99.90
5806;DHT22;2929;50.810;8.342;2022-12-05T16:45:38;1.80;99.90
5806;DHT22;2929;50.810;8.342;2022-12-05T16:48:14;1.80;99.90
5806;DHT22;2929;50.810;8.342;2022-12-05T16:50:41;1.80;99.90
5806;DHT22;2929;50.810;8.342;2022-12-05T16:53:21;1.80;99.90
5806;DHT22;2929;50.810;8.342;2022-12-05T16:55:54;1.70;99.90
5806;DHT22;2929;50.810;8.342;2022-12-05T16:58:25;1.70;99.90
5806;DHT22;2929;50.810;8.342;2022-12-05T17:01:00;1.70;99.90
5806;DHT22;2929;50.810;8.342;2022-12-05T17:03:27;1.70;99.90
5806;DHT22;2929;50.810;8.342;2022-12-05T17:05:54;1.70;99.90
5806;DHT22;2929;50.810;8.342;2022-12-05T17:08:21;1.80;99.90
5806;DHT22;2929;50.810;8.342;2022-12-05T17:10:49;1.70;99.90
5806;DHT22;2929;50.810;8.342;2022-12-05T17:13:19;1.70;99.90